createdAt,value
2023-05-03T00:01:14.101Z,100695.44
2023-05-03T00:03:40.413Z,100698.59
2023-05-03T00:06:14.179Z,100701.28
2023-05-03T00:08:41.325Z,100700.56
2023-05-03T00:11:08.487Z,100702.00
2023-05-03T00:13:35.154Z,100710.94
2023-05-03T00:16:01.902Z,100717.75
2023-05-03T00:18:29.198Z,100696.47
2023-05-03T00:20:55.605Z,100695.91
2023-05-03T00:23:21.944Z,100688.63
2023-05-03T00:25:53.174Z,100698.78
2023-05-03T00:28:19.477Z,100697.44
2023-05-03T00:30:45.942Z,100700.94
2023-05-03T00:33:12.429Z,100699.28
2023-05-03T00:35:38.814Z,100687.53
2023-05-03T00:38:05.129Z,100681.63
2023-05-03T00:40:31.782Z,100681.34
2023-05-03T00:42:58.120Z,100681.63
2023-05-03T00:45:24.542Z,100679.09
2023-05-03T00:47:51.067Z,100685.03
2023-05-03T00:50:17.565Z,100672.22
2023-05-03T00:52:44.130Z,100669.31
2023-05-03T00:55:11.446Z,100668.84
2023-05-03T00:57:37.763Z,100678.84
2023-05-03T01:00:04.825Z,100663.66
2023-05-03T01:02:31.497Z,100672.72
2023-05-03T01:04:57.898Z,100668.22
2023-05-03T01:07:48.944Z,100664.94
2023-05-03T01:10:26.487Z,100670.28
2023-05-03T01:13:07.588Z,100674.75
2023-05-03T01:15:52.799Z,100668.69
2023-05-03T01:18:23.888Z,100662.38
2023-05-03T01:20:51.384Z,100663.22
2023-05-03T01:23:32.974Z,100659.03
2023-05-03T01:26:00.002Z,100662.09
2023-05-03T01:28:26.347Z,100659.19
2023-05-03T01:30:54.817Z,100661.75
2023-05-03T01:33:52.205Z,100672.28
2023-05-03T01:36:32.443Z,100662.13
2023-05-03T01:39:06.580Z,100673.00
2023-05-03T01:41:35.132Z,100669.41
2023-05-03T01:44:03.394Z,100671.31
2023-05-03T01:46:29.885Z,100666.72
2023-05-03T01:48:56.270Z,100670.06
2023-05-03T01:51:22.600Z,100671.59
2023-05-03T01:53:49.447Z,100681.47
2023-05-03T01:56:15.801Z,100683.88
2023-05-03T01:58:42.145Z,100686.66
2023-05-03T02:01:09.596Z,100682.41
2023-05-03T02:03:35.949Z,100688.09
2023-05-03T02:06:02.384Z,100693.53
2023-05-03T02:08:28.727Z,100699.09
2023-05-03T02:10:55.046Z,100698.78
2023-05-03T02:13:21.336Z,100701.53
2023-05-03T02:15:48.128Z,100696.38
2023-05-03T02:18:16.337Z,100699.53
2023-05-03T02:20:46.522Z,100708.94
2023-05-03T02:23:13.144Z,100703.72
2023-05-03T02:25:40.510Z,100708.00
2023-05-03T02:28:06.880Z,100699.91
2023-05-03T02:30:34.921Z,100705.44
2023-05-03T02:33:02.205Z,100698.94
2023-05-03T02:35:29.339Z,100703.53
2023-05-03T02:37:55.977Z,100693.75
2023-05-03T02:40:22.445Z,100701.03
2023-05-03T02:42:48.773Z,100698.53
2023-05-03T02:45:22.591Z,100695.78
2023-05-03T02:47:48.988Z,100700.50
2023-05-03T02:50:15.571Z,100699.34
2023-05-03T02:52:41.991Z,100689.25
2023-05-03T02:55:08.841Z,100691.38
2023-05-03T02:57:36.142Z,100689.81
2023-05-03T03:00:05.864Z,100678.81
2023-05-03T03:02:33.047Z,100686.59
2023-05-03T03:04:59.463Z,100683.00
2023-05-03T03:07:27.857Z,100687.97
2023-05-03T03:09:56.651Z,100686.47
2023-05-03T03:12:23.073Z,100679.53
2023-05-03T03:14:49.462Z,100680.47
2023-05-03T03:17:15.818Z,100681.31
2023-05-03T03:19:42.229Z,100676.81
2023-05-03T03:22:08.690Z,100682.06
2023-05-03T03:24:36.670Z,100682.13
2023-05-03T03:27:03.849Z,100680.84
2023-05-03T03:29:32.237Z,100685.78
2023-05-03T03:32:00.420Z,100689.63
2023-05-03T03:34:26.815Z,100681.00
2023-05-03T03:36:53.295Z,100687.63
2023-05-03T03:39:20.720Z,100683.66
2023-05-03T03:41:47.979Z,100693.66
2023-05-03T03:44:14.432Z,100687.34
2023-05-03T03:46:40.880Z,100702.16
2023-05-03T03:49:08.047Z,100714.91
2023-05-03T03:51:35.675Z,100704.53
2023-05-03T03:54:02.260Z,100716.16
2023-05-03T03:56:33.879Z,100713.63
2023-05-03T03:59:00.306Z,100715.66
2023-05-03T04:01:26.768Z,100712.13
2023-05-03T04:03:53.395Z,100710.22
2023-05-03T04:06:19.818Z,100712.50
2023-05-03T04:08:46.991Z,100698.44
2023-05-03T04:11:14.661Z,100707.72
2023-05-03T04:13:49.552Z,100703.56
2023-05-03T04:16:16.816Z,100707.88
2023-05-03T04:18:43.817Z,100703.50
2023-05-03T04:21:10.181Z,100700.84
2023-05-03T04:23:36.835Z,100706.94
2023-05-03T04:26:05.473Z,100705.72
2023-05-03T04:28:33.898Z,100698.50
2023-05-03T04:31:00.570Z,100704.88
2023-05-03T04:33:29.865Z,100701.00
2023-05-03T04:36:01.076Z,100705.22
2023-05-03T04:38:28.062Z,100701.94
2023-05-03T04:40:57.054Z,100685.19
2023-05-03T04:43:24.102Z,100694.47
2023-05-03T04:45:53.046Z,100692.75
2023-05-03T04:48:22.677Z,100704.19
2023-05-03T04:50:49.565Z,100696.34
2023-05-03T04:53:18.474Z,100711.25
2023-05-03T04:55:50.993Z,100708.75
2023-05-03T04:58:17.447Z,100699.44
2023-05-03T05:00:45.852Z,100708.22
2023-05-03T05:03:18.306Z,100718.59
2023-05-03T05:05:44.680Z,100718.16
2023-05-03T05:08:11.872Z,100711.91
2023-05-03T05:10:43.569Z,100710.94
2023-05-03T05:13:14.338Z,100714.19
2023-05-03T05:15:41.352Z,100712.56
2023-05-03T05:18:10.320Z,100715.06
2023-05-03T05:20:38.135Z,100717.28
2023-05-03T05:23:05.185Z,100722.84
2023-05-03T05:25:31.582Z,100715.34
2023-05-03T05:28:00.329Z,100722.66
2023-05-03T05:30:28.395Z,100700.94
2023-05-03T05:32:54.843Z,100713.72
2023-05-03T05:35:21.220Z,100703.69
2023-05-03T05:37:47.765Z,100694.59
2023-05-03T05:40:15.339Z,100694.94
2023-05-03T05:42:48.436Z,100686.13
2023-05-03T05:45:15.115Z,100696.06
2023-05-03T05:47:42.752Z,100707.28
2023-05-03T05:50:17.542Z,100701.75
2023-05-03T05:52:50.760Z,100706.47
2023-05-03T05:55:17.238Z,100722.44
2023-05-03T05:57:45.028Z,100718.03
2023-05-03T06:00:15.342Z,100723.88
2023-05-03T06:02:47.012Z,100707.88
2023-05-03T06:05:17.701Z,100720.38
2023-05-03T06:07:44.117Z,100713.50
2023-05-03T06:10:10.800Z,100723.47
2023-05-03T06:12:39.209Z,100727.31
2023-05-03T06:15:11.012Z,100721.91
2023-05-03T06:17:37.666Z,100721.31
2023-05-03T06:20:04.801Z,100724.81
2023-05-03T06:22:31.411Z,100727.44
2023-05-03T06:24:58.324Z,100731.56
2023-05-03T06:27:25.562Z,100731.19
2023-05-03T06:29:52.838Z,100719.19
2023-05-03T06:32:19.443Z,100726.25
2023-05-03T06:34:46.062Z,100722.13
2023-05-03T06:37:12.665Z,100717.50
2023-05-03T06:39:38.985Z,100726.31
2023-05-03T06:42:05.485Z,100732.84
2023-05-03T06:44:36.720Z,100722.38
2023-05-03T06:47:03.120Z,100724.38
2023-05-03T06:49:29.528Z,100721.84
2023-05-03T06:51:55.833Z,100719.19
2023-05-03T06:54:22.161Z,100730.94
2023-05-03T06:56:48.462Z,100725.09
2023-05-03T06:59:14.767Z,100726.66
2023-05-03T07:01:41.138Z,100721.31
2023-05-03T07:04:07.773Z,100728.56
2023-05-03T07:06:44.335Z,100721.13
2023-05-03T07:09:14.962Z,100724.34
2023-05-03T07:11:49.179Z,100723.66
2023-05-03T07:14:16.388Z,100726.53
2023-05-03T07:16:42.923Z,100719.84
2023-05-03T07:19:09.340Z,100715.78
2023-05-03T07:21:35.658Z,100717.44
2023-05-03T07:24:01.985Z,100711.91
2023-05-03T07:26:28.269Z,100707.88
2023-05-03T07:28:54.558Z,100702.75
2023-05-03T07:31:22.985Z,100704.13
2023-05-03T07:33:49.421Z,100703.50
2023-05-03T07:36:15.754Z,100704.03
2023-05-03T07:38:42.078Z,100704.06
2023-05-03T07:41:08.462Z,100696.44
2023-05-03T07:43:34.752Z,100706.25
2023-05-03T07:46:01.097Z,100695.50
2023-05-03T07:48:27.429Z,100685.22
2023-05-03T07:50:53.826Z,100700.44
2023-05-03T07:53:20.305Z,100699.66
2023-05-03T07:55:46.688Z,100691.63
2023-05-03T07:58:13.265Z,100689.84
2023-05-03T08:00:39.592Z,100700.19
2023-05-03T08:03:06.692Z,100679.34
2023-05-03T08:05:36.406Z,100687.53
2023-05-03T08:08:03.914Z,100686.28
2023-05-03T08:10:30.301Z,100688.59
2023-05-03T08:12:56.594Z,100695.13
2023-05-03T08:15:22.923Z,100694.06
2023-05-03T08:17:49.418Z,100682.06
2023-05-03T08:20:16.603Z,100689.94
2023-05-03T08:22:45.075Z,100692.53
2023-05-03T08:25:12.289Z,100681.47
2023-05-03T08:27:39.929Z,100686.28
2023-05-03T08:30:07.633Z,100678.34
2023-05-03T08:32:34.510Z,100674.66
2023-05-03T08:35:01.209Z,100662.03
2023-05-03T08:37:27.508Z,100670.50
2023-05-03T08:39:53.804Z,100677.72
2023-05-03T08:42:20.163Z,100667.00
2023-05-03T08:44:48.531Z,100679.84
2023-05-03T08:47:16.920Z,100670.53
2023-05-03T08:49:44.198Z,100663.13
2023-05-03T08:52:11.997Z,100665.09
2023-05-03T08:54:38.840Z,100663.06
2023-05-03T08:57:11.236Z,100669.41
2023-05-03T08:59:51.260Z,100658.56
2023-05-03T09:02:17.893Z,100663.19
2023-05-03T09:04:45.021Z,100667.06
2023-05-03T09:07:12.862Z,100661.19
2023-05-03T09:09:39.264Z,100659.44
2023-05-03T09:12:05.932Z,100666.66
2023-05-03T09:14:42.291Z,100649.72
2023-05-03T09:17:21.417Z,100659.81
2023-05-03T09:19:55.449Z,100654.16
2023-05-03T09:22:32.936Z,100652.31
2023-05-03T09:25:01.734Z,100653.16
2023-05-03T09:27:28.438Z,100650.25
2023-05-03T09:29:55.046Z,100645.72
2023-05-03T09:32:22.795Z,100644.22
2023-05-03T09:34:49.217Z,100647.19
2023-05-03T09:37:15.634Z,100632.09
2023-05-03T09:39:45.814Z,100643.81
2023-05-03T09:42:13.202Z,100635.25
2023-05-03T09:44:51.278Z,100631.50
2023-05-03T09:47:18.622Z,100628.50
2023-05-03T09:49:45.372Z,100631.03
2023-05-03T09:52:12.160Z,100629.81
2023-05-03T09:54:39.425Z,100629.56
2023-05-03T09:57:07.913Z,100632.34
2023-05-03T09:59:36.009Z,100638.72
2023-05-03T10:02:04.624Z,100641.06
2023-05-03T10:04:44.296Z,100650.50
2023-05-03T10:07:17.156Z,100648.59
2023-05-03T10:09:45.437Z,100648.09
2023-05-03T10:12:13.377Z,100650.69
2023-05-03T10:14:41.953Z,100646.50
2023-05-03T10:17:14.386Z,100631.66
2023-05-03T10:19:57.554Z,100631.09
2023-05-03T10:22:23.865Z,100635.34
2023-05-03T10:25:02.573Z,100619.06
2023-05-03T10:27:48.400Z,100615.34
2023-05-03T10:30:37.161Z,100609.16
2023-05-03T10:33:09.725Z,100611.00
2023-05-03T10:35:39.320Z,100609.94
2023-05-03T10:38:20.541Z,100605.81
2023-05-03T10:40:46.914Z,100612.38
2023-05-03T10:43:28.551Z,100620.91
2023-05-03T10:46:05.925Z,100607.31
2023-05-03T10:48:33.636Z,100592.16
2023-05-03T10:51:33.487Z,100599.47
2023-05-03T10:53:59.878Z,100593.13
2023-05-03T10:56:26.331Z,100584.84
2023-05-03T10:58:56.491Z,100589.50
2023-05-03T11:01:24.781Z,100579.38
2023-05-03T11:04:05.375Z,100586.09
2023-05-03T11:06:36.952Z,100588.06
2023-05-03T11:09:06.379Z,100589.91
2023-05-03T11:11:33.938Z,100589.38
2023-05-03T11:14:00.647Z,100584.00
2023-05-03T11:16:27.293Z,100583.72
2023-05-03T11:18:54.026Z,100578.56
2023-05-03T11:21:21.059Z,100573.53
2023-05-03T11:23:47.425Z,100565.31
2023-05-03T11:26:13.981Z,100565.38
2023-05-03T11:28:44.285Z,100556.81
2023-05-03T11:31:12.335Z,100562.16
2023-05-03T11:33:39.724Z,100559.19
2023-05-03T11:36:09.444Z,100558.50
2023-05-03T11:38:38.637Z,100546.53
2023-05-03T11:41:19.315Z,100549.91
2023-05-03T11:43:52.796Z,100543.44
2023-05-03T11:46:27.677Z,100543.69
2023-05-03T11:48:54.282Z,100534.03
2023-05-03T11:51:25.352Z,100533.25
2023-05-03T11:53:51.922Z,100542.31
2023-05-03T11:56:20.442Z,100533.06
2023-05-03T11:59:04.764Z,100529.13
2023-05-03T12:01:31.506Z,100531.63
2023-05-03T12:04:03.843Z,100527.25
2023-05-03T12:06:35.994Z,100534.81
2023-05-03T12:09:13.097Z,100524.69
2023-05-03T12:11:42.966Z,100529.66
2023-05-03T12:14:10.896Z,100527.53
2023-05-03T12:16:52.576Z,100525.19
2023-05-03T12:19:28.239Z,100521.78
2023-05-03T12:22:17.945Z,100516.72
2023-05-03T12:24:45.317Z,100514.06
2023-05-03T12:27:13.845Z,100513.00
2023-05-03T12:29:41.932Z,100509.63
2023-05-03T12:32:10.745Z,100505.31
2023-05-03T12:34:41.148Z,100502.59
2023-05-03T12:37:11.585Z,100493.72
2023-05-03T12:39:39.987Z,100495.56
2023-05-03T12:42:08.800Z,100490.34
2023-05-03T12:44:40.703Z,100479.78
2023-05-03T12:47:09.958Z,100476.72
2023-05-03T12:49:38.760Z,100463.69
2023-05-03T12:52:35.506Z,100460.13
2023-05-03T12:55:02.711Z,100461.00
2023-05-03T12:57:30.889Z,100463.66
2023-05-03T13:00:02.820Z,100471.88
2023-05-03T13:05:11.232Z,100468.00
2023-05-03T13:07:42.917Z,100457.56
2023-05-03T13:12:41.137Z,100454.94
2023-05-03T13:15:08.540Z,100449.53
2023-05-03T13:17:35.124Z,100446.44
2023-05-03T13:20:01.620Z,100448.53
2023-05-03T13:22:28.141Z,100439.75
2023-05-03T13:24:54.599Z,100437.97
2023-05-03T13:27:20.882Z,100428.72
2023-05-03T13:29:49.346Z,100435.13
2023-05-03T13:32:16.740Z,100424.03
2023-05-03T13:34:43.360Z,100428.56
2023-05-03T13:37:11.063Z,100425.56
2023-05-03T13:39:37.407Z,100420.69
2023-05-03T13:42:03.842Z,100417.31
2023-05-03T13:44:30.164Z,100408.25
2023-05-03T13:46:56.942Z,100411.28
2023-05-03T13:49:23.244Z,100403.38
2023-05-03T13:51:49.586Z,100401.16
2023-05-03T13:54:15.924Z,100399.78
2023-05-03T13:56:42.896Z,100392.88
2023-05-03T13:59:11.843Z,100394.97
2023-05-03T14:01:38.332Z,100374.25
2023-05-03T14:04:05.104Z,100385.31
2023-05-03T14:06:33.536Z,100379.31
2023-05-03T14:09:01.245Z,100367.59
2023-05-03T14:11:28.515Z,100361.41
2023-05-03T14:13:57.441Z,100365.25
2023-05-03T14:16:39.201Z,100365.25
2023-05-03T14:19:09.889Z,100363.16
2023-05-03T14:21:36.233Z,100358.28
2023-05-03T14:24:02.640Z,100347.19
2023-05-03T14:26:29.504Z,100354.88
2023-05-03T14:28:56.149Z,100349.38
2023-05-03T14:31:22.668Z,100348.56
2023-05-03T14:33:49.177Z,100345.47
2023-05-03T14:36:15.619Z,100344.31
2023-05-03T14:38:41.964Z,100325.28
2023-05-03T14:41:09.052Z,100340.59
2023-05-03T14:43:35.328Z,100334.72
2023-05-03T14:46:01.834Z,100332.38
2023-05-03T14:48:28.253Z,100328.44
2023-05-03T14:50:54.630Z,100321.41
2023-05-03T14:53:21.771Z,100322.91
2023-05-03T14:55:48.232Z,100323.69
2023-05-03T14:58:14.645Z,100319.50
2023-05-03T15:00:41.734Z,100319.72
2023-05-03T15:03:11.572Z,100328.66
2023-05-03T15:05:46.395Z,100312.25
2023-05-03T15:08:14.431Z,100323.47
2023-05-03T15:10:41.572Z,100311.78
2023-05-03T15:13:10.086Z,100315.75
2023-05-03T15:15:40.489Z,100302.78
2023-05-03T15:18:08.689Z,100317.28
2023-05-03T15:20:35.641Z,100302.91
2023-05-03T15:23:04.221Z,100303.56
2023-05-03T15:25:31.035Z,100300.19
2023-05-03T15:27:57.482Z,100302.16
2023-05-03T15:30:23.809Z,100307.53
2023-05-03T15:32:51.110Z,100295.59
2023-05-03T15:35:17.527Z,100296.81
2023-05-03T15:37:43.862Z,100293.09
2023-05-03T15:40:12.850Z,100306.38
2023-05-03T15:42:39.911Z,100303.94
2023-05-03T15:45:07.520Z,100296.19
2023-05-03T15:47:33.947Z,100295.66
2023-05-03T15:50:01.952Z,100299.63
2023-05-03T15:52:28.582Z,100293.69
2023-05-03T15:54:56.083Z,100298.41
2023-05-03T15:57:22.782Z,100297.59
2023-05-03T15:59:49.422Z,100295.84
2023-05-03T16:02:16.020Z,100296.28
2023-05-03T16:04:42.426Z,100293.91
2023-05-03T16:07:08.814Z,100292.22
2023-05-03T16:09:35.129Z,100292.22
2023-05-03T16:12:02.317Z,100296.72
2023-05-03T16:14:28.661Z,100282.28
2023-05-03T16:16:55.008Z,100287.94
2023-05-03T16:19:21.522Z,100291.59
2023-05-03T16:21:47.876Z,100289.78
2023-05-03T16:24:14.274Z,100289.38
2023-05-03T16:26:41.167Z,100296.09
2023-05-03T16:29:07.497Z,100294.25
2023-05-03T16:31:33.903Z,100281.88
2023-05-03T16:34:02.523Z,100296.41
2023-05-03T16:36:28.873Z,100287.84
2023-05-03T16:38:55.256Z,100282.69
2023-05-03T16:41:21.628Z,100293.59
2023-05-03T16:43:47.932Z,100294.34
2023-05-03T16:46:14.362Z,100291.50
2023-05-03T16:48:40.721Z,100294.44
2023-05-03T16:51:07.318Z,100280.13
2023-05-03T16:53:33.661Z,100284.50
2023-05-03T16:56:00.040Z,100285.03
2023-05-03T16:58:26.365Z,100284.34
2023-05-03T17:00:53.291Z,100281.97
2023-05-03T17:03:19.886Z,100279.75
2023-05-03T17:05:46.280Z,100278.53
2023-05-03T17:08:13.383Z,100287.13
2023-05-03T17:10:39.677Z,100281.94
2023-05-03T17:13:06.213Z,100280.56
2023-05-03T17:15:32.918Z,100278.19
2023-05-03T17:18:00.723Z,100281.16
2023-05-03T17:20:30.108Z,100287.63
2023-05-03T17:22:56.622Z,100264.63
2023-05-03T17:25:23.047Z,100271.78
2023-05-03T17:27:51.611Z,100280.66
2023-05-03T17:30:21.037Z,100269.97
2023-05-03T17:32:48.383Z,100275.06
2023-05-03T17:35:14.873Z,100271.16
2023-05-03T17:37:41.280Z,100274.47
2023-05-03T17:40:08.109Z,100270.44
2023-05-03T17:42:35.169Z,100271.81
2023-05-03T17:45:02.506Z,100270.16
2023-05-03T17:47:29.286Z,100276.88
2023-05-03T17:49:56.124Z,100261.06
2023-05-03T17:52:22.640Z,100270.47
2023-05-03T17:54:51.913Z,100272.16
2023-05-03T17:57:20.653Z,100271.47
2023-05-03T17:59:48.374Z,100271.50
2023-05-03T18:02:14.841Z,100281.56
2023-05-03T18:04:41.240Z,100277.34
2023-05-03T18:07:07.714Z,100264.88
2023-05-03T18:09:34.153Z,100268.38
2023-05-03T18:12:03.297Z,100280.03
2023-05-03T18:14:29.745Z,100265.88
2023-05-03T18:16:56.066Z,100265.16
2023-05-03T18:19:23.726Z,100270.09
2023-05-03T18:21:50.090Z,100276.25
2023-05-03T18:24:16.469Z,100275.41
2023-05-03T18:26:42.768Z,100278.38
2023-05-03T18:29:09.088Z,100274.84
2023-05-03T18:31:35.441Z,100280.75
2023-05-03T18:34:01.763Z,100287.50
2023-05-03T18:36:28.150Z,100287.03
2023-05-03T18:38:54.512Z,100286.03
2023-05-03T18:41:20.890Z,100292.84
2023-05-03T18:43:47.781Z,100290.47
2023-05-03T18:46:18.726Z,100295.91
2023-05-03T18:48:45.849Z,100304.38
2023-05-03T18:51:12.258Z,100303.19
2023-05-03T18:53:38.604Z,100295.91
2023-05-03T18:56:05.158Z,100304.31
2023-05-03T18:58:32.023Z,100292.63
2023-05-03T19:00:59.974Z,100285.06
2023-05-03T19:03:30.317Z,100286.69
2023-05-03T19:06:01.000Z,100295.97
2023-05-03T19:08:28.065Z,100298.19
2023-05-03T19:10:54.382Z,100292.25
2023-05-03T19:13:20.785Z,100301.53
2023-05-03T19:15:47.234Z,100290.28
2023-05-03T19:18:15.319Z,100298.34
2023-05-03T19:20:43.156Z,100294.88
2023-05-03T19:23:09.449Z,100307.34
2023-05-03T19:25:35.897Z,100304.84
2023-05-03T19:28:04.201Z,100300.31
2023-05-03T19:30:30.542Z,100287.69
2023-05-03T19:32:56.905Z,100303.69
2023-05-03T19:35:23.225Z,100306.66
2023-05-03T19:37:49.541Z,100304.59
2023-05-03T19:40:15.922Z,100311.44
2023-05-03T19:42:42.256Z,100297.81
2023-05-03T19:45:09.787Z,100303.13
2023-05-03T19:47:36.251Z,100307.00
2023-05-03T19:50:02.850Z,100310.00
2023-05-03T19:52:29.422Z,100303.00
2023-05-03T19:54:57.153Z,100301.59
2023-05-03T19:57:23.645Z,100300.25
2023-05-03T19:59:50.738Z,100299.56
2023-05-03T20:02:18.368Z,100306.25
2023-05-03T20:04:44.741Z,100314.69
2023-05-03T20:07:11.187Z,100317.25
2023-05-03T20:09:37.489Z,100316.78
2023-05-03T20:12:04.219Z,100311.28
2023-05-03T20:14:32.517Z,100314.56
2023-05-03T20:16:58.922Z,100316.28
2023-05-03T20:19:25.803Z,100310.69
2023-05-03T20:21:52.543Z,100312.16
2023-05-03T20:24:20.566Z,100302.66
2023-05-03T20:26:46.912Z,100303.25
2023-05-03T20:29:13.344Z,100298.69
2023-05-03T20:31:39.747Z,100303.84
2023-05-03T20:34:06.205Z,100305.69
2023-05-03T20:36:32.768Z,100300.56
2023-05-03T20:38:59.291Z,100287.19
2023-05-03T20:41:25.960Z,100301.72
2023-05-03T20:43:54.698Z,100301.16
2023-05-03T20:46:21.209Z,100290.31
2023-05-03T20:48:47.598Z,100296.94
2023-05-03T20:51:14.693Z,100304.41
2023-05-03T20:53:41.288Z,100298.03
2023-05-03T20:56:08.050Z,100297.84
2023-05-03T20:58:34.636Z,100288.06
2023-05-03T21:01:04.031Z,100282.13
2023-05-03T21:03:30.858Z,100293.69
2023-05-03T21:05:57.636Z,100280.63
2023-05-03T21:08:24.418Z,100295.88
2023-05-03T21:10:50.828Z,100294.09
2023-05-03T21:13:17.343Z,100288.56
2023-05-03T21:15:43.817Z,100295.91
2023-05-03T21:18:11.215Z,100288.13
2023-05-03T21:20:38.213Z,100299.91
2023-05-03T21:23:05.084Z,100300.81
2023-05-03T21:25:31.387Z,100304.31
2023-05-03T21:27:57.687Z,100305.50
2023-05-03T21:30:24.024Z,100311.91
2023-05-03T21:32:50.704Z,100302.94
2023-05-03T21:35:17.829Z,100304.53
2023-05-03T21:37:45.979Z,100301.69
2023-05-03T21:40:13.643Z,100302.84
2023-05-03T21:42:39.987Z,100308.28
2023-05-03T21:45:06.893Z,100310.38
2023-05-03T21:47:33.339Z,100314.28
2023-05-03T21:50:00.522Z,100302.75
2023-05-03T21:52:27.062Z,100298.38
2023-05-03T21:54:54.125Z,100302.41
2023-05-03T21:57:20.422Z,100294.38
2023-05-03T21:59:47.272Z,100291.81
2023-05-03T22:02:13.800Z,100292.69
2023-05-03T22:04:40.219Z,100284.00
2023-05-03T22:07:06.627Z,100280.84
2023-05-03T22:09:32.918Z,100277.88
2023-05-03T22:12:03.857Z,100279.78
2023-05-03T22:14:35.005Z,100285.31
2023-05-03T22:17:01.426Z,100272.16
2023-05-03T22:19:28.292Z,100269.81
2023-05-03T22:21:54.725Z,100278.63
2023-05-03T22:24:21.019Z,100267.34
2023-05-03T22:26:47.486Z,100264.78
2023-05-03T22:29:13.965Z,100268.56
2023-05-03T22:31:40.474Z,100274.81
2023-05-03T22:34:06.811Z,100269.13
2023-05-03T22:36:33.095Z,100267.09
2023-05-03T22:39:05.051Z,100268.03
2023-05-03T22:41:33.958Z,100269.09
2023-05-03T22:44:00.538Z,100269.91
2023-05-03T22:46:26.991Z,100271.09
2023-05-03T22:48:53.384Z,100273.63
2023-05-03T22:51:19.845Z,100268.94
2023-05-03T22:53:46.174Z,100259.47
2023-05-03T22:56:13.260Z,100259.09
2023-05-03T22:58:39.638Z,100268.84
2023-05-03T23:01:13.438Z,100270.34
2023-05-03T23:03:39.998Z,100269.00
2023-05-03T23:06:07.142Z,100267.47
2023-05-03T23:08:33.421Z,100262.63
2023-05-03T23:10:59.743Z,100261.16
2023-05-03T23:13:27.201Z,100271.38
2023-05-03T23:15:56.792Z,100260.13
2023-05-03T23:18:23.258Z,100259.47
2023-05-03T23:20:49.519Z,100263.63
2023-05-03T23:23:16.171Z,100258.59
2023-05-03T23:25:42.805Z,100258.41
2023-05-03T23:28:09.342Z,100262.66
2023-05-03T23:30:36.220Z,100258.41
2023-05-03T23:33:03.022Z,100255.00
2023-05-03T23:35:29.974Z,100254.53
2023-05-03T23:37:56.261Z,100254.97
2023-05-03T23:40:22.706Z,100251.22
2023-05-03T23:42:49.617Z,100253.78
2023-05-03T23:45:15.980Z,100248.19
2023-05-03T23:47:42.315Z,100241.66
2023-05-03T23:50:09.109Z,100246.00
2023-05-03T23:52:35.700Z,100254.66
2023-05-03T23:55:02.291Z,100243.47
2023-05-03T23:57:28.663Z,100246.38
2023-05-03T23:59:55.047Z,100236.66
